createdAt,value
2022-08-30T00:01:03.972Z,19.30
2022-08-30T00:02:06.745Z,19.25
2022-08-30T00:03:12.251Z,19.22
2022-08-30T00:04:14.640Z,19.17
2022-08-30T00:05:17.685Z,19.17
2022-08-30T00:06:20.872Z,19.14
2022-08-30T00:07:23.394Z,19.04
2022-08-30T00:08:25.628Z,18.98
2022-08-30T00:09:27.910Z,18.89
2022-08-30T00:10:30.371Z,18.93
2022-08-30T00:11:33.611Z,18.92
2022-08-30T00:12:36.470Z,18.93
2022-08-30T00:13:42.045Z,18.91
2022-08-30T00:14:44.303Z,18.89
2022-08-30T00:15:47.259Z,18.87
2022-08-30T00:16:50.808Z,18.82
2022-08-30T00:17:54.037Z,18.85
2022-08-30T00:18:56.913Z,18.86
2022-08-30T00:20:00.311Z,18.78
2022-08-30T00:21:04.856Z,18.73
2022-08-30T00:22:07.245Z,18.79
2022-08-30T00:23:09.584Z,18.79
2022-08-30T00:24:11.846Z,18.80
2022-08-30T00:25:15.903Z,18.81
2022-08-30T00:26:18.321Z,18.75
2022-08-30T00:27:20.584Z,18.78
2022-08-30T00:28:22.946Z,18.74
2022-08-30T00:29:25.263Z,18.72
2022-08-30T00:30:27.554Z,18.70
2022-08-30T00:31:29.855Z,18.70
2022-08-30T00:32:32.273Z,18.70
2022-08-30T00:33:34.800Z,18.71
2022-08-30T00:34:37.014Z,18.69
2022-08-30T00:35:39.951Z,18.69
2022-08-30T00:36:44.046Z,18.70
2022-08-30T00:37:47.667Z,18.69
2022-08-30T00:38:49.973Z,18.68
2022-08-30T00:39:52.293Z,18.68
2022-08-30T00:40:55.117Z,18.69
2022-08-30T00:41:57.322Z,18.69
2022-08-30T00:43:05.626Z,18.70
2022-08-30T00:44:08.334Z,18.71
2022-08-30T00:45:12.694Z,18.67
2022-08-30T00:46:15.245Z,18.72
2022-08-30T00:47:18.663Z,18.73
2022-08-30T00:48:21.074Z,18.75
2022-08-30T00:49:24.439Z,18.74
2022-08-30T00:50:35.926Z,18.75
2022-08-30T00:51:39.429Z,18.75
2022-08-30T00:52:46.335Z,18.69
2022-08-30T00:53:53.669Z,18.74
2022-08-30T00:54:55.987Z,18.79
2022-08-30T00:56:00.332Z,18.73
2022-08-30T00:57:04.071Z,18.71
2022-08-30T00:58:09.917Z,18.61
2022-08-30T00:59:12.280Z,18.57
2022-08-30T01:00:16.226Z,18.54
2022-08-30T01:01:19.423Z,18.47
2022-08-30T01:02:23.701Z,18.49
2022-08-30T01:03:28.587Z,18.51
2022-08-30T01:04:33.450Z,18.48
2022-08-30T01:05:39.614Z,18.48
2022-08-30T01:06:41.905Z,18.42
2022-08-30T01:07:44.275Z,18.38
2022-08-30T01:08:47.980Z,18.41
2022-08-30T01:09:50.965Z,18.40
2022-08-30T01:10:54.810Z,18.43
2022-08-30T01:11:57.754Z,18.36
2022-08-30T01:13:00.816Z,18.43
2022-08-30T01:14:04.849Z,18.41
2022-08-30T01:15:09.357Z,18.43
2022-08-30T01:16:11.671Z,18.45
2022-08-30T01:17:15.265Z,18.45
2022-08-30T01:18:22.385Z,18.50
2022-08-30T01:19:38.544Z,18.49
2022-08-30T01:20:51.881Z,18.48
2022-08-30T01:22:00.133Z,18.55
2022-08-30T01:23:16.433Z,18.59
2022-08-30T01:24:20.635Z,18.57
2022-08-30T01:25:27.573Z,18.41
2022-08-30T01:26:31.919Z,18.34
2022-08-30T01:27:37.558Z,18.29
2022-08-30T01:28:40.389Z,18.26
2022-08-30T01:29:45.030Z,18.28
2022-08-30T01:30:47.630Z,18.21
2022-08-30T01:31:50.133Z,18.22
2022-08-30T01:32:58.285Z,18.19
2022-08-30T01:34:01.835Z,18.19
2022-08-30T01:35:04.321Z,18.27
2022-08-30T01:36:13.061Z,18.32
2022-08-30T01:37:34.118Z,18.38
2022-08-30T01:38:41.549Z,18.29
2022-08-30T01:39:46.351Z,18.25
2022-08-30T01:40:49.951Z,18.02
2022-08-30T01:41:52.782Z,17.91
2022-08-30T01:42:55.127Z,17.77
2022-08-30T01:43:59.762Z,17.67
2022-08-30T01:45:02.251Z,17.63
2022-08-30T01:46:04.985Z,17.54
2022-08-30T01:47:07.495Z,17.50
2022-08-30T01:48:12.721Z,17.61
2022-08-30T01:49:18.969Z,17.72
2022-08-30T01:50:30.217Z,17.84
2022-08-30T01:51:33.057Z,17.60
2022-08-30T01:52:35.425Z,17.57
2022-08-30T01:53:39.396Z,17.45
2022-08-30T01:54:43.865Z,17.37
2022-08-30T01:55:46.139Z,17.29
2022-08-30T01:56:48.411Z,17.42
2022-08-30T01:57:51.020Z,17.38
2022-08-30T01:58:53.994Z,17.50
2022-08-30T01:59:56.262Z,17.58
2022-08-30T02:00:58.629Z,17.60
2022-08-30T02:02:00.858Z,17.35
2022-08-30T02:03:03.344Z,17.32
2022-08-30T02:04:07.607Z,17.33
2022-08-30T02:05:10.178Z,17.41
2022-08-30T02:06:15.439Z,17.44
2022-08-30T02:07:17.657Z,17.28
2022-08-30T02:08:19.935Z,17.11
2022-08-30T02:09:22.116Z,17.07
2022-08-30T02:10:24.506Z,17.08
2022-08-30T02:11:26.803Z,17.05
2022-08-30T02:12:30.296Z,17.13
2022-08-30T02:13:33.715Z,17.05
2022-08-30T02:14:37.372Z,16.90
2022-08-30T02:15:41.779Z,16.83
2022-08-30T02:16:44.363Z,16.74
2022-08-30T02:17:46.790Z,16.60
2022-08-30T02:18:50.123Z,16.60
2022-08-30T02:19:52.404Z,16.50
2022-08-30T02:20:54.736Z,16.57
2022-08-30T02:21:57.040Z,16.69
2022-08-30T02:23:01.374Z,16.82
2022-08-30T02:24:04.135Z,16.90
2022-08-30T02:25:09.824Z,16.78
2022-08-30T02:26:23.627Z,16.76
2022-08-30T02:27:26.734Z,16.81
2022-08-30T02:28:29.141Z,16.87
2022-08-30T02:29:31.537Z,16.93
2022-08-30T02:30:34.481Z,16.95
2022-08-30T02:31:36.808Z,16.94
2022-08-30T02:32:39.199Z,16.76
2022-08-30T02:33:41.395Z,16.75
2022-08-30T02:34:44.611Z,16.64
2022-08-30T02:35:47.020Z,16.59
2022-08-30T02:36:49.346Z,16.58
2022-08-30T02:37:52.143Z,16.59
2022-08-30T02:38:54.410Z,16.53
2022-08-30T02:39:56.687Z,16.65
2022-08-30T02:40:59.047Z,16.66
2022-08-30T02:42:01.687Z,16.67
2022-08-30T02:43:03.925Z,16.77
2022-08-30T02:44:07.545Z,16.82
2022-08-30T02:45:10.319Z,16.81
2022-08-30T02:46:12.983Z,16.82
2022-08-30T02:47:15.262Z,16.79
2022-08-30T02:48:17.532Z,16.77
2022-08-30T02:49:35.202Z,16.67
2022-08-30T02:50:45.998Z,16.57
2022-08-30T02:51:48.258Z,16.43
2022-08-30T02:52:50.610Z,16.47
2022-08-30T02:53:52.837Z,16.42
2022-08-30T02:54:55.281Z,16.33
2022-08-30T02:55:57.939Z,16.31
2022-08-30T02:57:04.593Z,16.31
2022-08-30T02:58:08.014Z,16.28
2022-08-30T02:59:10.349Z,16.32
2022-08-30T03:00:17.293Z,16.37
2022-08-30T03:01:19.804Z,16.42
2022-08-30T03:02:22.197Z,16.42
2022-08-30T03:03:25.327Z,16.35
2022-08-30T03:04:27.775Z,16.30
2022-08-30T03:05:32.940Z,16.36
2022-08-30T03:06:35.733Z,16.40
2022-08-30T03:07:38.118Z,16.42
2022-08-30T03:08:41.295Z,16.39
2022-08-30T03:09:43.597Z,16.33
2022-08-30T03:10:46.029Z,16.24
2022-08-30T03:11:48.267Z,16.23
2022-08-30T03:12:50.689Z,16.23
2022-08-30T03:13:53.000Z,16.30
2022-08-30T03:14:55.352Z,16.30
2022-08-30T03:15:57.650Z,16.32
2022-08-30T03:16:59.858Z,16.15
2022-08-30T03:18:02.330Z,16.02
2022-08-30T03:19:04.770Z,16.13
2022-08-30T03:20:08.838Z,16.05
2022-08-30T03:21:13.121Z,15.99
2022-08-30T03:22:15.807Z,16.05
2022-08-30T03:23:21.645Z,16.02
2022-08-30T03:24:24.707Z,15.95
2022-08-30T03:25:27.491Z,15.89
2022-08-30T03:26:29.741Z,15.92
2022-08-30T03:27:32.018Z,15.93
2022-08-30T03:28:34.657Z,15.98
2022-08-30T03:29:36.980Z,15.93
2022-08-30T03:30:39.397Z,15.98
2022-08-30T03:31:53.636Z,16.06
2022-08-30T03:32:56.205Z,16.13
2022-08-30T03:33:58.430Z,16.19
2022-08-30T03:35:01.005Z,16.11
2022-08-30T03:36:04.004Z,16.07
2022-08-30T03:37:06.730Z,16.08
2022-08-30T03:38:08.989Z,15.96
2022-08-30T03:39:12.524Z,15.88
2022-08-30T03:40:20.010Z,15.91
2022-08-30T03:41:22.369Z,15.95
2022-08-30T03:42:25.461Z,15.87
2022-08-30T03:43:27.701Z,15.79
2022-08-30T03:44:31.569Z,15.73
2022-08-30T03:45:33.880Z,15.80
2022-08-30T03:46:37.628Z,15.71
2022-08-30T03:47:41.066Z,15.68
2022-08-30T03:48:44.432Z,15.69
2022-08-30T03:49:46.660Z,15.64
2022-08-30T03:50:48.916Z,15.57
2022-08-30T03:51:51.855Z,15.62
2022-08-30T03:52:54.250Z,15.61
2022-08-30T03:53:56.495Z,15.57
2022-08-30T03:55:00.658Z,15.68
2022-08-30T03:56:03.690Z,15.78
2022-08-30T03:57:06.757Z,15.62
2022-08-30T03:58:09.057Z,15.45
2022-08-30T03:59:11.473Z,15.42
2022-08-30T04:00:16.272Z,15.42
2022-08-30T04:01:18.880Z,15.41
2022-08-30T04:02:21.236Z,15.41
2022-08-30T04:03:25.947Z,15.46
2022-08-30T04:04:28.264Z,15.52
2022-08-30T04:05:30.575Z,15.47
2022-08-30T04:06:33.250Z,15.55
2022-08-30T04:07:35.596Z,15.57
2022-08-30T04:08:38.862Z,15.61
2022-08-30T04:09:41.772Z,15.58
2022-08-30T04:10:44.162Z,15.49
2022-08-30T04:11:46.588Z,15.55
2022-08-30T04:12:50.315Z,15.47
2022-08-30T04:13:53.307Z,15.45
2022-08-30T04:14:55.661Z,15.40
2022-08-30T04:15:57.977Z,15.38
2022-08-30T04:17:00.238Z,15.37
2022-08-30T04:18:02.519Z,15.45
2022-08-30T04:19:04.873Z,15.41
2022-08-30T04:20:07.937Z,15.36
2022-08-30T04:21:13.898Z,15.41
2022-08-30T04:22:16.616Z,15.49
2022-08-30T04:23:19.594Z,15.56
2022-08-30T04:24:21.870Z,15.45
2022-08-30T04:25:24.277Z,15.49
2022-08-30T04:26:27.634Z,15.44
2022-08-30T04:27:32.321Z,15.44
2022-08-30T04:28:35.895Z,15.54
2022-08-30T04:29:38.542Z,15.43
2022-08-30T04:30:43.413Z,15.34
2022-08-30T04:31:46.276Z,15.45
2022-08-30T04:32:48.939Z,15.47
2022-08-30T04:33:51.275Z,15.49
2022-08-30T04:34:58.279Z,15.44
2022-08-30T04:36:06.074Z,15.33
2022-08-30T04:37:09.810Z,15.32
2022-08-30T04:38:13.739Z,15.40
2022-08-30T04:39:17.897Z,15.45
2022-08-30T04:40:20.479Z,15.40
2022-08-30T04:41:24.300Z,15.43
2022-08-30T04:42:31.996Z,15.48
2022-08-30T04:43:34.303Z,15.56
2022-08-30T04:44:36.529Z,15.64
2022-08-30T04:45:40.056Z,15.59
2022-08-30T04:46:44.531Z,15.54
2022-08-30T04:47:47.372Z,15.45
2022-08-30T04:48:49.913Z,15.58
2022-08-30T04:49:52.986Z,15.65
2022-08-30T04:50:55.258Z,15.69
2022-08-30T04:51:57.520Z,15.68
2022-08-30T04:52:59.753Z,15.77
2022-08-30T04:54:02.164Z,15.66
2022-08-30T04:55:06.739Z,15.66
2022-08-30T04:56:22.322Z,15.55
2022-08-30T04:57:25.657Z,15.52
2022-08-30T04:58:27.936Z,15.48
2022-08-30T04:59:30.178Z,15.48
2022-08-30T05:00:32.591Z,15.50
2022-08-30T05:01:44.666Z,15.56
2022-08-30T05:02:48.962Z,15.85
2022-08-30T05:03:53.519Z,16.26
2022-08-30T05:05:14.290Z,17.18
2022-08-30T05:06:17.222Z,17.87
2022-08-30T05:07:19.480Z,18.03
2022-08-30T05:08:24.814Z,18.18
2022-08-30T05:09:27.222Z,18.48
2022-08-30T05:10:29.678Z,18.55
2022-08-30T05:11:32.004Z,18.23
2022-08-30T05:12:34.560Z,18.28
2022-08-30T05:13:37.401Z,19.16
2022-08-30T05:14:39.707Z,20.05
2022-08-30T05:15:42.277Z,20.56
2022-08-30T05:16:45.587Z,20.86
2022-08-30T05:17:48.298Z,21.48
2022-08-30T05:18:53.816Z,21.61
2022-08-30T05:19:56.062Z,21.67
2022-08-30T05:21:12.743Z,22.26
2022-08-30T05:22:14.953Z,22.29
2022-08-30T05:23:17.479Z,22.41
2022-08-30T05:24:20.692Z,22.58
2022-08-30T05:25:26.561Z,23.12
2022-08-30T05:26:31.955Z,23.65
2022-08-30T05:27:34.443Z,23.93
2022-08-30T05:28:40.315Z,24.23
2022-08-30T05:29:42.564Z,24.59
2022-08-30T05:30:44.849Z,24.99
2022-08-30T05:31:47.233Z,24.84
2022-08-30T05:32:50.108Z,25.18
2022-08-30T05:33:53.739Z,25.39
2022-08-30T05:34:55.956Z,25.32
2022-08-30T05:35:58.539Z,25.53
2022-08-30T05:37:02.848Z,26.19
2022-08-30T05:38:05.099Z,26.71
2022-08-30T05:39:10.450Z,26.58
2022-08-30T05:40:17.419Z,26.93
2022-08-30T05:41:22.046Z,26.75
2022-08-30T05:42:24.298Z,26.27
2022-08-30T05:43:26.849Z,26.06
2022-08-30T05:44:32.396Z,26.28
2022-08-30T05:45:34.713Z,26.58
2022-08-30T05:46:37.478Z,25.98
2022-08-30T05:47:39.956Z,25.43
2022-08-30T05:48:42.253Z,25.71
2022-08-30T05:49:44.613Z,25.63
2022-08-30T05:50:46.852Z,25.80
2022-08-30T05:51:49.221Z,25.84
2022-08-30T05:52:51.476Z,25.95
2022-08-30T05:53:57.106Z,25.74
2022-08-30T05:54:59.521Z,25.71
2022-08-30T05:56:04.775Z,25.78
2022-08-30T05:57:08.156Z,25.80
2022-08-30T05:58:10.370Z,25.77
2022-08-30T05:59:14.266Z,25.86
2022-08-30T06:00:18.122Z,25.31
2022-08-30T06:01:26.208Z,24.98
2022-08-30T06:02:28.528Z,25.29
2022-08-30T06:03:32.899Z,25.83
2022-08-30T06:04:36.686Z,26.31
2022-08-30T06:05:39.010Z,26.35
2022-08-30T06:06:43.514Z,26.30
2022-08-30T06:07:45.767Z,26.36
2022-08-30T06:08:48.890Z,25.60
2022-08-30T06:09:51.211Z,25.31
2022-08-30T06:10:53.676Z,25.06
2022-08-30T06:11:56.060Z,25.78
2022-08-30T06:12:58.807Z,25.40
2022-08-30T06:14:01.736Z,25.63
2022-08-30T06:15:04.358Z,25.79
2022-08-30T06:16:07.021Z,26.37
2022-08-30T06:17:09.378Z,27.13
2022-08-30T06:18:12.843Z,26.77
2022-08-30T06:19:16.274Z,26.15
2022-08-30T06:20:20.153Z,26.56
2022-08-30T06:21:30.889Z,25.96
2022-08-30T06:22:33.096Z,27.03
2022-08-30T06:23:35.382Z,26.60
2022-08-30T06:24:56.289Z,26.51
2022-08-30T06:26:07.385Z,26.65
2022-08-30T06:27:10.851Z,26.42
2022-08-30T06:28:13.298Z,26.39
2022-08-30T06:29:18.164Z,26.22
2022-08-30T06:30:20.473Z,25.46
2022-08-30T06:31:24.541Z,25.36
2022-08-30T06:32:26.888Z,25.50
2022-08-30T06:33:29.142Z,25.80
2022-08-30T06:34:31.331Z,26.08
2022-08-30T06:35:38.077Z,25.70
2022-08-30T06:36:44.612Z,24.14
2022-08-30T06:37:46.790Z,22.76
2022-08-30T06:38:57.026Z,22.08
2022-08-30T06:40:00.595Z,21.58
2022-08-30T06:45:44.965Z,20.29
2022-08-30T06:46:47.936Z,20.46
2022-08-30T06:47:50.325Z,20.63
2022-08-30T06:48:53.464Z,21.41
2022-08-30T06:49:59.215Z,21.24
2022-08-30T06:51:01.616Z,21.60
2022-08-30T06:52:05.175Z,21.58
2022-08-30T06:53:08.538Z,21.55
2022-08-30T06:54:12.352Z,21.26
2022-08-30T06:55:16.689Z,20.76
2022-08-30T06:56:19.878Z,20.75
2022-08-30T06:57:22.159Z,20.71
2022-08-30T06:58:24.807Z,21.01
2022-08-30T06:59:27.309Z,21.40
2022-08-30T07:00:30.135Z,21.21
2022-08-30T07:01:32.738Z,21.61
2022-08-30T07:02:44.248Z,21.60
2022-08-30T07:03:46.882Z,20.85
2022-08-30T07:04:49.527Z,20.76
2022-08-30T07:05:51.849Z,21.02
2022-08-30T07:06:54.365Z,20.80
2022-08-30T07:07:56.758Z,21.05
2022-08-30T07:08:59.190Z,21.02
2022-08-30T07:10:05.744Z,20.89
2022-08-30T07:11:08.629Z,20.73
2022-08-30T07:12:12.099Z,20.95
2022-08-30T07:13:14.755Z,20.82
2022-08-30T07:14:17.643Z,20.82
2022-08-30T07:15:22.893Z,20.83
2022-08-30T07:16:25.791Z,21.05
2022-08-30T07:17:47.064Z,20.84
2022-08-30T07:18:54.693Z,20.84
2022-08-30T07:19:57.642Z,20.74
2022-08-30T07:21:07.696Z,20.94
2022-08-30T07:22:10.258Z,21.29
2022-08-30T07:23:13.125Z,21.58
2022-08-30T07:24:16.295Z,21.71
2022-08-30T07:25:19.971Z,21.73
2022-08-30T07:26:35.768Z,21.63
2022-08-30T07:27:38.477Z,21.30
2022-08-30T07:28:44.072Z,21.49
2022-08-30T07:29:48.547Z,21.89
2022-08-30T07:30:51.098Z,21.97
2022-08-30T07:31:53.585Z,22.32
2022-08-30T07:32:56.183Z,22.46
2022-08-30T07:33:58.952Z,22.92
2022-08-30T07:35:02.149Z,23.16
2022-08-30T07:36:05.493Z,22.76
2022-08-30T07:37:08.333Z,22.92
2022-08-30T07:38:15.016Z,22.99
2022-08-30T07:39:17.527Z,22.65
2022-08-30T07:40:20.485Z,22.24
2022-08-30T07:41:29.414Z,22.29
2022-08-30T07:42:31.869Z,22.13
2022-08-30T07:43:35.650Z,22.09
2022-08-30T07:44:37.973Z,22.20
2022-08-30T07:45:40.343Z,22.28
2022-08-30T07:46:42.786Z,22.03
2022-08-30T07:47:46.749Z,22.31
2022-08-30T07:48:50.263Z,22.22
2022-08-30T07:49:53.090Z,22.09
2022-08-30T07:50:59.013Z,22.12
2022-08-30T07:52:04.384Z,22.10
2022-08-30T07:53:09.358Z,22.15
2022-08-30T07:54:14.695Z,22.43
2022-08-30T07:55:18.132Z,22.50
2022-08-30T07:56:21.596Z,22.40
2022-08-30T07:57:24.611Z,22.39
2022-08-30T07:58:27.152Z,22.47
2022-08-30T07:59:31.867Z,22.32
2022-08-30T08:00:36.637Z,22.43
2022-08-30T08:01:39.041Z,22.30
2022-08-30T08:02:42.427Z,22.36
2022-08-30T08:03:46.640Z,22.70
2022-08-30T08:04:48.959Z,23.08
2022-08-30T08:05:53.077Z,23.39
2022-08-30T08:06:56.152Z,23.33
2022-08-30T08:07:58.370Z,23.74
2022-08-30T08:09:02.334Z,24.13
2022-08-30T08:10:05.161Z,24.18
2022-08-30T08:11:16.249Z,23.95
2022-08-30T08:12:18.913Z,23.82
2022-08-30T08:13:21.284Z,23.97
2022-08-30T08:14:23.709Z,23.98
2022-08-30T08:15:26.662Z,24.19
2022-08-30T08:16:31.021Z,24.58
2022-08-30T08:17:34.036Z,24.36
2022-08-30T08:18:36.906Z,24.34
2022-08-30T08:19:39.804Z,24.36
2022-08-30T08:20:42.952Z,24.32
2022-08-30T08:21:46.067Z,24.51
2022-08-30T08:22:48.916Z,23.95
2022-08-30T08:23:51.737Z,23.85
2022-08-30T08:24:54.239Z,23.91
2022-08-30T08:25:56.808Z,24.30
2022-08-30T08:26:59.149Z,24.79
2022-08-30T08:28:02.050Z,24.53
2022-08-30T08:29:07.524Z,24.58
2022-08-30T08:30:10.468Z,24.78
2022-08-30T08:31:34.274Z,25.10
2022-08-30T08:32:37.108Z,24.98
2022-08-30T08:33:39.413Z,25.01
2022-08-30T08:34:42.004Z,24.97
2022-08-30T08:35:45.755Z,25.08
2022-08-30T08:36:48.963Z,25.16
2022-08-30T08:37:51.250Z,25.54
2022-08-30T08:38:53.801Z,25.18
2022-08-30T08:39:56.091Z,25.52
2022-08-30T08:41:35.835Z,25.24
2022-08-30T08:43:05.257Z,25.54
2022-08-30T08:44:16.237Z,25.53
2022-08-30T08:45:47.467Z,25.34
2022-08-30T08:47:31.876Z,25.15
2022-08-30T08:48:59.926Z,25.56
2022-08-30T08:50:07.048Z,25.55
2022-08-30T08:51:30.529Z,25.61
2022-08-30T08:53:03.862Z,25.50
2022-08-30T08:54:20.133Z,25.75
2022-08-30T08:55:24.157Z,26.21
2022-08-30T08:56:26.710Z,26.24
2022-08-30T08:57:37.198Z,26.10
2022-08-30T08:58:47.648Z,26.55
2022-08-30T08:59:54.098Z,26.08
2022-08-30T09:00:58.170Z,26.24
2022-08-30T09:02:03.133Z,26.58
2022-08-30T09:03:05.574Z,25.96
2022-08-30T09:04:15.785Z,26.19
2022-08-30T09:05:22.342Z,26.34
2022-08-30T09:06:38.450Z,26.27
2022-08-30T09:07:57.212Z,26.55
2022-08-30T09:08:59.651Z,26.48
2022-08-30T09:10:02.520Z,26.44
2022-08-30T09:11:11.098Z,27.03
2022-08-30T09:12:13.812Z,27.24
2022-08-30T09:13:16.991Z,27.19
2022-08-30T09:14:34.793Z,27.31
2022-08-30T09:15:37.158Z,26.60
2022-08-30T09:17:24.309Z,26.84
2022-08-30T09:18:56.397Z,27.12
2022-08-30T09:20:00.466Z,27.20
2022-08-30T09:21:06.998Z,26.99
2022-08-30T09:22:31.923Z,26.86
2022-08-30T09:23:34.528Z,27.55
2022-08-30T09:24:46.233Z,27.78
2022-08-30T09:25:55.613Z,27.95
2022-08-30T09:27:23.977Z,27.69
2022-08-30T09:28:49.457Z,27.62
2022-08-30T09:29:56.386Z,27.88
2022-08-30T09:31:26.236Z,27.36
2022-08-30T09:32:35.467Z,27.44
2022-08-30T09:33:38.007Z,27.79
2022-08-30T09:34:43.525Z,27.93
2022-08-30T09:35:52.074Z,28.09
2022-08-30T09:36:56.501Z,27.96
2022-08-30T09:38:05.908Z,27.71
2022-08-30T09:39:33.382Z,28.01
2022-08-30T09:40:45.572Z,27.19
2022-08-30T09:41:50.335Z,27.61
2022-08-30T09:43:05.083Z,27.59
2022-08-30T09:44:14.562Z,27.76
2022-08-30T09:45:30.325Z,28.02
2022-08-30T09:46:32.756Z,28.51
2022-08-30T09:47:35.398Z,28.31
2022-08-30T09:48:42.273Z,28.29
2022-08-30T09:49:44.772Z,27.97
2022-08-30T09:50:55.021Z,28.52
2022-08-30T09:52:16.799Z,28.37
2022-08-30T09:53:28.237Z,27.94
2022-08-30T09:54:55.194Z,28.23
2022-08-30T09:56:12.422Z,28.13
2022-08-30T09:57:33.510Z,28.52
2022-08-30T09:59:08.096Z,28.24
2022-08-30T10:00:17.766Z,27.55
2022-08-30T10:01:53.312Z,27.42
2022-08-30T10:02:58.280Z,27.88
2022-08-30T10:04:37.349Z,28.04
2022-08-30T10:05:48.627Z,27.19
2022-08-30T10:07:15.667Z,27.63
2022-08-30T10:08:36.406Z,27.86
2022-08-30T10:10:02.890Z,27.72
2022-08-30T10:11:12.279Z,27.71
2022-08-30T10:12:26.512Z,27.85
2022-08-30T10:14:08.129Z,27.98
2022-08-30T10:15:26.846Z,27.77
2022-08-30T10:16:33.545Z,27.91
2022-08-30T10:18:02.699Z,27.40
2022-08-30T10:19:23.371Z,27.97
2022-08-30T10:20:41.736Z,28.15
2022-08-30T10:21:52.244Z,28.66
2022-08-30T10:23:09.869Z,28.17
2022-08-30T10:24:21.025Z,28.58
2022-08-30T10:25:34.924Z,28.51
2022-08-30T10:26:51.696Z,28.42
2022-08-30T10:28:03.554Z,28.27
2022-08-30T10:29:16.093Z,28.42
2022-08-30T10:30:18.786Z,28.75
2022-08-30T10:31:29.087Z,28.87
2022-08-30T10:32:41.719Z,29.07
2022-08-30T10:33:52.572Z,29.06
2022-08-30T10:35:39.133Z,28.33
2022-08-30T10:36:47.024Z,28.38
2022-08-30T10:37:58.004Z,28.43
2022-08-30T10:39:02.390Z,28.96
2022-08-30T10:40:41.558Z,29.31
2022-08-30T10:41:54.997Z,28.84
2022-08-30T10:43:01.222Z,28.68
2022-08-30T10:44:18.524Z,28.93
2022-08-30T10:45:22.125Z,28.64
2022-08-30T10:47:01.340Z,28.16
2022-08-30T10:48:13.908Z,28.38
2022-08-30T10:49:21.281Z,28.81
2022-08-30T10:50:29.602Z,28.41
2022-08-30T10:51:35.832Z,28.46
2022-08-30T10:52:59.376Z,29.02
2022-08-30T10:54:18.574Z,29.16
2022-08-30T10:55:33.392Z,28.92
2022-08-30T10:56:40.489Z,29.23
2022-08-30T10:57:43.642Z,29.74
2022-08-30T10:58:46.868Z,29.81
2022-08-30T10:59:57.376Z,29.94
2022-08-30T11:01:12.400Z,29.43
2022-08-30T11:02:33.521Z,29.44
2022-08-30T11:04:09.216Z,29.68
2022-08-30T11:05:42.086Z,28.85
2022-08-30T11:07:02.599Z,28.82
2022-08-30T11:08:09.841Z,28.27
2022-08-30T11:09:52.573Z,28.84
2022-08-30T11:11:33.151Z,28.31
2022-08-30T11:12:49.137Z,28.33
2022-08-30T11:13:55.818Z,28.38
2022-08-30T11:15:11.208Z,28.71
2022-08-30T11:16:16.527Z,28.34
2022-08-30T11:17:35.713Z,29.00
2022-08-30T11:18:57.693Z,28.53
2022-08-30T11:20:02.608Z,28.50
2022-08-30T11:21:33.510Z,28.68
2022-08-30T11:22:39.266Z,28.75
2022-08-30T11:23:41.677Z,29.05
2022-08-30T11:25:10.171Z,29.14
2022-08-30T11:26:50.902Z,29.03
2022-08-30T11:27:59.000Z,29.71
2022-08-30T11:29:05.221Z,29.59
2022-08-30T11:30:27.423Z,29.44
2022-08-30T11:31:38.206Z,29.39
2022-08-30T11:33:00.670Z,29.76
2022-08-30T11:34:05.867Z,28.91
2022-08-30T11:35:11.187Z,29.33
2022-08-30T11:36:28.977Z,29.04
2022-08-30T11:37:43.103Z,29.17
2022-08-30T11:38:46.902Z,29.42
2022-08-30T11:39:49.302Z,29.37
2022-08-30T11:40:54.231Z,29.15
2022-08-30T11:42:29.525Z,28.94
2022-08-30T11:43:49.986Z,28.66
2022-08-30T11:44:52.620Z,29.28
2022-08-30T11:46:19.372Z,29.44
2022-08-30T11:47:49.813Z,29.69
2022-08-30T11:48:57.263Z,30.01
2022-08-30T11:50:13.396Z,29.83
2022-08-30T11:51:40.916Z,29.45
2022-08-30T11:53:14.285Z,28.83
2022-08-30T11:54:25.329Z,29.11
2022-08-30T11:55:52.057Z,29.56
2022-08-30T11:56:59.977Z,29.84
2022-08-30T11:58:27.087Z,30.02
2022-08-30T11:59:53.230Z,30.01
2022-08-30T12:01:51.025Z,29.87
2022-08-30T12:02:59.508Z,29.47
2022-08-30T12:04:16.980Z,28.88
2022-08-30T12:05:40.833Z,28.93
2022-08-30T12:06:54.425Z,28.53
2022-08-30T12:08:02.399Z,28.48
2022-08-30T12:09:08.159Z,28.57
2022-08-30T12:10:24.376Z,28.36
2022-08-30T12:11:33.210Z,28.16
2022-08-30T12:12:38.146Z,28.18
2022-08-30T12:13:42.816Z,28.49
2022-08-30T12:14:57.533Z,28.57
2022-08-30T12:16:05.569Z,28.66
2022-08-30T12:17:42.318Z,29.01
2022-08-30T12:19:00.093Z,29.20
2022-08-30T12:20:04.874Z,29.49
2022-08-30T12:21:20.263Z,29.24
2022-08-30T12:22:23.847Z,29.42
2022-08-30T12:23:56.969Z,28.93
2022-08-30T12:24:59.746Z,28.60
2022-08-30T12:26:10.970Z,28.48
2022-08-30T12:27:32.736Z,28.29
2022-08-30T12:28:35.273Z,28.26
2022-08-30T12:29:52.021Z,28.14
2022-08-30T12:30:54.427Z,28.34
2022-08-30T12:32:14.939Z,28.51
2022-08-30T12:33:36.569Z,28.84
2022-08-30T12:34:43.510Z,28.74
2022-08-30T12:35:45.820Z,28.71
2022-08-30T12:36:55.002Z,28.18
2022-08-30T12:38:05.875Z,28.46
2022-08-30T12:39:18.058Z,28.57
2022-08-30T12:40:23.189Z,29.01
2022-08-30T12:41:25.919Z,29.07
2022-08-30T12:42:31.579Z,28.69
2022-08-30T12:43:40.562Z,28.50
2022-08-30T12:44:45.244Z,29.04
2022-08-30T12:45:50.772Z,29.20
2022-08-30T12:47:00.288Z,29.04
2022-08-30T12:48:10.930Z,28.99
2022-08-30T12:49:15.817Z,29.07
2022-08-30T12:50:26.176Z,29.01
2022-08-30T12:51:35.367Z,28.87
2022-08-30T12:52:41.139Z,28.97
2022-08-30T12:53:47.038Z,28.79
2022-08-30T12:54:56.829Z,29.07
2022-08-30T12:56:07.170Z,29.44
2022-08-30T12:57:34.675Z,29.04
2022-08-30T12:58:43.504Z,29.10
2022-08-30T12:59:54.242Z,29.01
2022-08-30T13:01:28.671Z,29.35
2022-08-30T13:02:47.115Z,29.17
2022-08-30T13:04:01.145Z,29.16
2022-08-30T13:05:34.197Z,29.33
2022-08-30T13:06:42.247Z,28.87
2022-08-30T13:07:45.447Z,28.75
2022-08-30T13:08:51.722Z,28.92
2022-08-30T13:10:20.111Z,29.12
2022-08-30T13:11:22.551Z,29.53
2022-08-30T13:12:27.677Z,29.84
2022-08-30T13:13:45.672Z,29.62
2022-08-30T13:15:19.911Z,30.33
2022-08-30T13:16:26.734Z,30.40
2022-08-30T13:17:31.854Z,29.65
2022-08-30T13:18:34.099Z,29.44
2022-08-30T13:19:43.618Z,29.12
2022-08-30T13:20:47.983Z,29.27
2022-08-30T13:21:54.993Z,29.26
2022-08-30T13:23:06.861Z,29.41
2022-08-30T13:24:09.122Z,29.50
2022-08-30T13:25:11.845Z,29.68
2022-08-30T13:26:14.880Z,29.96
2022-08-30T13:27:26.756Z,30.33
2022-08-30T13:28:29.149Z,30.18
2022-08-30T13:29:32.022Z,29.94
2022-08-30T13:30:34.985Z,29.84
2022-08-30T13:31:37.731Z,29.56
2022-08-30T13:32:40.192Z,29.63
2022-08-30T13:33:45.862Z,29.85
2022-08-30T13:34:48.196Z,30.25
2022-08-30T13:35:50.521Z,30.17
2022-08-30T13:36:57.848Z,29.78
2022-08-30T13:38:01.862Z,29.46
2022-08-30T13:39:05.934Z,29.93
2022-08-30T13:40:13.877Z,29.90
2022-08-30T13:41:16.605Z,30.30
2022-08-30T13:42:34.682Z,30.12
2022-08-30T13:45:01.155Z,29.43
2022-08-30T13:46:03.654Z,29.45
2022-08-30T13:48:28.857Z,29.85
2022-08-30T13:49:43.477Z,29.52
2022-08-30T13:50:46.264Z,29.78
2022-08-30T13:52:18.445Z,29.65
2022-08-30T13:53:14.207Z,29.33
2022-08-30T13:54:16.688Z,29.46
2022-08-30T13:55:18.960Z,29.12
2022-08-30T13:56:24.198Z,29.25
2022-08-30T13:58:52.212Z,29.53
2022-08-30T13:59:55.154Z,29.57
2022-08-30T14:00:58.363Z,29.63
2022-08-30T14:02:10.676Z,29.41
2022-08-30T14:03:14.803Z,29.52
2022-08-30T14:04:17.187Z,29.64
2022-08-30T14:05:47.100Z,29.55
2022-08-30T14:08:06.723Z,29.74
2022-08-30T14:09:10.532Z,29.99
2022-08-30T14:10:31.355Z,30.44
2022-08-30T14:11:34.809Z,30.27
2022-08-30T14:12:53.059Z,30.57
2022-08-30T14:15:18.505Z,30.25
2022-08-30T14:16:28.269Z,30.02
2022-08-30T14:17:32.720Z,29.78
2022-08-30T14:18:35.505Z,29.38
2022-08-30T14:19:39.702Z,29.30
2022-08-30T14:20:41.974Z,29.30
2022-08-30T14:21:48.917Z,30.03
2022-08-30T14:22:51.734Z,30.52
2022-08-30T14:23:56.538Z,30.95
2022-08-30T14:25:01.355Z,30.68
2022-08-30T14:26:11.518Z,30.47
2022-08-30T14:27:13.799Z,29.56
2022-08-30T14:28:16.374Z,29.95
2022-08-30T14:29:23.108Z,29.72
2022-08-30T14:30:26.862Z,29.53
2022-08-30T14:31:30.207Z,29.87
2022-08-30T14:32:35.362Z,29.61
2022-08-30T14:33:37.661Z,29.76
2022-08-30T14:34:39.881Z,30.08
2022-08-30T14:35:42.261Z,29.61
2022-08-30T14:36:45.917Z,29.80
2022-08-30T14:37:50.558Z,29.74